โตเกียว, ประเทศญี่ปุ่น

01:47 PM JST วัน มกราคม 30, 2015 (GMT +0900)
Tokyo (Haneda) International | Change Station
CLOSE
Current Station
Airport
Location: Tokyo,
Elevation: 26 ft
Nearby Weather Stations

Elev 26 ft 35.55 °N, 139.78 °E | Updated 17 minutes ago

Light Rain
ฝนตกเบาบาง
37 ฟาเรนไฮน์
Feels Like 28 ฟาเรนไฮน์
N
15
ลม ความผันแปร ลม from ทางทิศเหนือและทิศตะวันตกเฉียงเหนือ

วันนี้
High -- | Low -- ฟาเรนไฮน์
--% Chance of Precip.
Yesterday
High -- | Low -- ฟาเรนไฮน์
Precip. -- นิ้ว
6:42 AM 5:05 PM
ข้างขึ้น, 80% visible
ความดัน 29.95 นิ้ว
ทัศนวิสัย 4.3 ไมล์
เมฆ Few 500 ft
มีเมฆคลุมเป็นส่วนใหญ่ 800 ft
มีเมฆคลุมเป็นส่วนใหญ่ 1000 ft
ลมหนาว 28 ฟาเรนไฮน์
อุณหภูมิที่อากาศอาจจับตัวเป็นหยาดน้ำค้าง 34 ฟาเรนไฮน์
ความชื้น 87%
Rainfall 0.00 นิ้ว
Snow Depth Not available.
UV 2 out of 12
Pollen Not available.
Air Quality Not available.
Flu Activity Not available.
METAR RJTT 300430Z 34013KT 7000 -RA FEW005 BKN008 BKN010 03/01 Q1014 TEMPO 4000 -RA BR RMK 1ST005 6ST008 7ST010 A2995

More Conditions Fewer Conditions

ความดัน 29.95 นิ้ว
ทัศนวิสัย 4.3 ไมล์
เมฆ Few 500 ft
มีเมฆคลุมเป็นส่วนใหญ่ 800 ft
มีเมฆคลุมเป็นส่วนใหญ่ 1000 ft
ลมหนาว 28 ฟาเรนไฮน์
อุณหภูมิที่อากาศอาจจับตัวเป็นหยาดน้ำค้าง 34 ฟาเรนไฮน์
ความชื้น 87%
Rainfall 0.00 นิ้ว
Snow Depth Not available.
UV 2 out of 12
Pollen Not available.
Air Quality Not available.
Flu Activity Not available.
METAR RJTT 300430Z 34013KT 7000 -RA FEW005 BKN008 BKN010 03/01 Q1014 TEMPO 4000 -RA BR RMK 1ST005 6ST008 7ST010 A2995

More Conditions Fewer Conditions

10-Day Weather Forecast

Almanac

ดาราศาสตร์

Jan. 30, 2015 Rise Set
Actual Time
Civil Twilight
Nautical Twilight
Astronomical Twilight
Moon
Length Of Visible Light
ความยาวของวัน
Tomorrow will be .
, % of the Moon is Illuminated

Today's Extremes

Country Highs Country Lows

Community

WunderPhotos

Upload Photos

1,791,712 photos uploaded!

WunderBlogs® & News

Nearby

Air Quality

  Air Quality AQ Index Pollutant
Not available.

Snow Depth

Station Depth Elevation

Earthquake Activity

City Distance Mag. Time & Date
Minimum magnitude displayed is 2.5.

Coastal Water Temperatures

สถานที่ อุณหภูมิ

Nearby Weather Stations